sensor_id;sensor_type;location;lat;lon;timestamp;P1;durP1;ratioP1;P2;durP2;ratioP2
8626;SDS011;4351;51.422;6.794;2022-09-23T00:01:35;4.33;;;2.40;;
8626;SDS011;4351;51.422;6.794;2022-09-23T00:04:03;4.07;;;2.27;;
8626;SDS011;4351;51.422;6.794;2022-09-23T00:06:31;3.03;;;1.90;;
8626;SDS011;4351;51.422;6.794;2022-09-23T00:09:01;4.20;;;2.20;;
8626;SDS011;4351;51.422;6.794;2022-09-23T00:11:29;4.73;;;2.43;;
8626;SDS011;4351;51.422;6.794;2022-09-23T00:13:57;5.10;;;2.27;;
8626;SDS011;4351;51.422;6.794;2022-09-23T00:16:27;3.77;;;1.80;;
8626;SDS011;4351;51.422;6.794;2022-09-23T00:18:56;4.63;;;2.10;;
8626;SDS011;4351;51.422;6.794;2022-09-23T00:21:24;4.70;;;2.00;;
8626;SDS011;4351;51.422;6.794;2022-09-23T00:23:53;5.63;;;2.10;;
8626;SDS011;4351;51.422;6.794;2022-09-23T00:26:23;6.10;;;2.33;;
8626;SDS011;4351;51.422;6.794;2022-09-23T00:28:51;7.17;;;2.50;;
8626;SDS011;4351;51.422;6.794;2022-09-23T00:31:19;4.50;;;2.40;;
8626;SDS011;4351;51.422;6.794;2022-09-23T00:33:51;3.90;;;2.27;;
8626;SDS011;4351;51.422;6.794;2022-09-23T00:36:19;6.67;;;2.10;;
8626;SDS011;4351;51.422;6.794;2022-09-23T00:38:47;5.13;;;2.20;;
8626;SDS011;4351;51.422;6.794;2022-09-23T00:41:15;4.67;;;2.30;;
8626;SDS011;4351;51.422;6.794;2022-09-23T00:43:46;5.20;;;2.47;;
8626;SDS011;4351;51.422;6.794;2022-09-23T00:46:16;3.93;;;2.00;;
8626;SDS011;4351;51.422;6.794;2022-09-23T00:48:47;3.40;;;1.80;;
8626;SDS011;4351;51.422;6.794;2022-09-23T00:51:21;4.53;;;2.07;;
8626;SDS011;4351;51.422;6.794;2022-09-23T00:53:51;2.70;;;1.77;;
8626;SDS011;4351;51.422;6.794;2022-09-23T00:56:19;3.20;;;2.00;;
8626;SDS011;4351;51.422;6.794;2022-09-23T00:58:51;3.00;;;1.93;;
8626;SDS011;4351;51.422;6.794;2022-09-23T01:01:20;4.57;;;2.47;;
8626;SDS011;4351;51.422;6.794;2022-09-23T01:03:51;3.50;;;2.20;;
8626;SDS011;4351;51.422;6.794;2022-09-23T01:06:20;2.57;;;2.00;;
8626;SDS011;4351;51.422;6.794;2022-09-23T01:08:48;6.20;;;2.30;;
8626;SDS011;4351;51.422;6.794;2022-09-23T01:11:21;4.07;;;2.23;;
8626;SDS011;4351;51.422;6.794;2022-09-23T01:14:00;4.63;;;2.53;;
8626;SDS011;4351;51.422;6.794;2022-09-23T01:16:40;3.73;;;2.07;;
8626;SDS011;4351;51.422;6.794;2022-09-23T01:19:20;2.93;;;2.10;;
8626;SDS011;4351;51.422;6.794;2022-09-23T01:22:02;4.60;;;2.30;;
8626;SDS011;4351;51.422;6.794;2022-09-23T01:24:44;3.97;;;1.97;;
8626;SDS011;4351;51.422;6.794;2022-09-23T01:27:19;3.00;;;2.00;;
8626;SDS011;4351;51.422;6.794;2022-09-23T01:30:11;4.47;;;2.20;;
8626;SDS011;4351;51.422;6.794;2022-09-23T01:32:51;4.07;;;2.00;;
8626;SDS011;4351;51.422;6.794;2022-09-23T01:35:25;2.67;;;2.13;;
8626;SDS011;4351;51.422;6.794;2022-09-23T01:38:05;4.03;;;1.97;;
8626;SDS011;4351;51.422;6.794;2022-09-23T01:40:46;6.00;;;2.63;;
8626;SDS011;4351;51.422;6.794;2022-09-23T01:43:20;2.10;;;1.90;;
8626;SDS011;4351;51.422;6.794;2022-09-23T01:45:51;3.80;;;1.87;;
8626;SDS011;4351;51.422;6.794;2022-09-23T01:48:25;4.57;;;2.23;;
8626;SDS011;4351;51.422;6.794;2022-09-23T01:51:00;2.87;;;2.03;;
8626;SDS011;4351;51.422;6.794;2022-09-23T01:53:35;3.73;;;2.23;;
8626;SDS011;4351;51.422;6.794;2022-09-23T01:56:10;6.97;;;2.27;;
8626;SDS011;4351;51.422;6.794;2022-09-23T01:58:43;6.30;;;2.33;;
8626;SDS011;4351;51.422;6.794;2022-09-23T02:01:16;2.23;;;2.03;;
8626;SDS011;4351;51.422;6.794;2022-09-23T02:03:51;3.57;;;2.00;;
8626;SDS011;4351;51.422;6.794;2022-09-23T02:06:26;4.27;;;2.20;;
8626;SDS011;4351;51.422;6.794;2022-09-23T02:09:04;3.63;;;2.10;;
8626;SDS011;4351;51.422;6.794;2022-09-23T02:11:36;3.37;;;2.00;;
8626;SDS011;4351;51.422;6.794;2022-09-23T02:14:09;3.10;;;1.90;;
8626;SDS011;4351;51.422;6.794;2022-09-23T02:16:42;2.70;;;2.10;;
8626;SDS011;4351;51.422;6.794;2022-09-23T02:19:17;2.80;;;1.83;;
8626;SDS011;4351;51.422;6.794;2022-09-23T02:21:49;3.40;;;2.40;;
8626;SDS011;4351;51.422;6.794;2022-09-23T02:24:23;3.57;;;1.97;;
8626;SDS011;4351;51.422;6.794;2022-09-23T02:26:57;6.23;;;2.47;;
8626;SDS011;4351;51.422;6.794;2022-09-23T02:29:31;4.10;;;2.50;;
8626;SDS011;4351;51.422;6.794;2022-09-23T02:32:06;5.20;;;2.03;;
8626;SDS011;4351;51.422;6.794;2022-09-23T02:34:43;5.67;;;2.33;;
8626;SDS011;4351;51.422;6.794;2022-09-23T02:37:20;3.30;;;2.00;;
8626;SDS011;4351;51.422;6.794;2022-09-23T02:39:57;6.50;;;2.40;;
8626;SDS011;4351;51.422;6.794;2022-09-23T02:42:33;5.83;;;2.63;;
8626;SDS011;4351;51.422;6.794;2022-09-23T02:45:07;5.17;;;2.50;;
8626;SDS011;4351;51.422;6.794;2022-09-23T02:47:35;3.50;;;2.73;;
8626;SDS011;4351;51.422;6.794;2022-09-23T02:50:10;3.10;;;2.13;;
8626;SDS011;4351;51.422;6.794;2022-09-23T02:52:39;5.60;;;2.37;;
8626;SDS011;4351;51.422;6.794;2022-09-23T02:55:07;3.57;;;2.17;;
8626;SDS011;4351;51.422;6.794;2022-09-23T02:57:38;4.07;;;2.40;;
8626;SDS011;4351;51.422;6.794;2022-09-23T03:00:06;3.40;;;2.30;;
8626;SDS011;4351;51.422;6.794;2022-09-23T03:02:40;4.17;;;2.37;;
8626;SDS011;4351;51.422;6.794;2022-09-23T03:05:23;4.90;;;2.50;;
8626;SDS011;4351;51.422;6.794;2022-09-23T03:08:04;4.23;;;2.63;;
8626;SDS011;4351;51.422;6.794;2022-09-23T03:10:48;3.77;;;2.20;;
8626;SDS011;4351;51.422;6.794;2022-09-23T03:13:26;5.63;;;2.63;;
8626;SDS011;4351;51.422;6.794;2022-09-23T03:15:59;4.97;;;2.40;;
8626;SDS011;4351;51.422;6.794;2022-09-23T03:18:36;5.70;;;2.77;;
8626;SDS011;4351;51.422;6.794;2022-09-23T03:21:10;4.90;;;2.60;;
8626;SDS011;4351;51.422;6.794;2022-09-23T03:23:42;3.87;;;2.20;;
8626;SDS011;4351;51.422;6.794;2022-09-23T03:26:14;5.17;;;2.53;;
8626;SDS011;4351;51.422;6.794;2022-09-23T03:28:46;3.30;;;2.10;;
8626;SDS011;4351;51.422;6.794;2022-09-23T03:31:16;3.20;;;2.20;;
8626;SDS011;4351;51.422;6.794;2022-09-23T03:33:45;6.67;;;2.60;;
8626;SDS011;4351;51.422;6.794;2022-09-23T03:36:20;5.27;;;2.30;;
8626;SDS011;4351;51.422;6.794;2022-09-23T03:39:11;4.17;;;2.40;;
8626;SDS011;4351;51.422;6.794;2022-09-23T03:41:50;5.20;;;2.53;;
8626;SDS011;4351;51.422;6.794;2022-09-23T03:44:22;4.63;;;2.33;;
8626;SDS011;4351;51.422;6.794;2022-09-23T03:46:56;5.97;;;2.80;;
8626;SDS011;4351;51.422;6.794;2022-09-23T03:49:26;5.67;;;2.77;;
8626;SDS011;4351;51.422;6.794;2022-09-23T03:52:00;7.03;;;2.70;;
8626;SDS011;4351;51.422;6.794;2022-09-23T03:54:28;6.80;;;2.70;;
8626;SDS011;4351;51.422;6.794;2022-09-23T03:56:56;5.50;;;2.67;;
8626;SDS011;4351;51.422;6.794;2022-09-23T03:59:24;4.50;;;2.63;;
8626;SDS011;4351;51.422;6.794;2022-09-23T04:01:52;7.73;;;2.97;;
8626;SDS011;4351;51.422;6.794;2022-09-23T04:04:21;6.07;;;2.60;;
8626;SDS011;4351;51.422;6.794;2022-09-23T04:06:49;4.83;;;2.37;;
8626;SDS011;4351;51.422;6.794;2022-09-23T04:09:18;6.17;;;2.70;;
8626;SDS011;4351;51.422;6.794;2022-09-23T04:11:46;3.67;;;2.20;;
8626;SDS011;4351;51.422;6.794;2022-09-23T04:14:15;4.80;;;2.37;;
8626;SDS011;4351;51.422;6.794;2022-09-23T04:16:44;4.47;;;2.50;;
8626;SDS011;4351;51.422;6.794;2022-09-23T04:19:12;5.00;;;2.50;;
8626;SDS011;4351;51.422;6.794;2022-09-23T04:21:41;4.10;;;2.33;;
8626;SDS011;4351;51.422;6.794;2022-09-23T04:24:10;4.33;;;2.40;;
8626;SDS011;4351;51.422;6.794;2022-09-23T04:26:40;3.43;;;2.23;;
8626;SDS011;4351;51.422;6.794;2022-09-23T04:29:08;4.37;;;2.40;;
8626;SDS011;4351;51.422;6.794;2022-09-23T04:31:37;5.63;;;2.63;;
8626;SDS011;4351;51.422;6.794;2022-09-23T04:34:05;5.10;;;2.43;;
8626;SDS011;4351;51.422;6.794;2022-09-23T04:36:33;4.63;;;2.40;;
8626;SDS011;4351;51.422;6.794;2022-09-23T04:39:01;5.23;;;2.10;;
8626;SDS011;4351;51.422;6.794;2022-09-23T04:41:30;3.63;;;2.23;;
8626;SDS011;4351;51.422;6.794;2022-09-23T04:43:59;4.93;;;2.20;;
8626;SDS011;4351;51.422;6.794;2022-09-23T04:46:27;4.47;;;2.40;;
8626;SDS011;4351;51.422;6.794;2022-09-23T04:48:56;3.83;;;2.40;;
8626;SDS011;4351;51.422;6.794;2022-09-23T04:51:24;4.10;;;2.20;;
8626;SDS011;4351;51.422;6.794;2022-09-23T04:53:53;3.90;;;2.10;;
8626;SDS011;4351;51.422;6.794;2022-09-23T04:56:23;4.53;;;1.83;;
8626;SDS011;4351;51.422;6.794;2022-09-23T04:58:52;8.50;;;2.23;;
8626;SDS011;4351;51.422;6.794;2022-09-23T05:01:24;2.90;;;2.30;;
8626;SDS011;4351;51.422;6.794;2022-09-23T05:03:55;4.40;;;2.30;;
8626;SDS011;4351;51.422;6.794;2022-09-23T05:06:28;6.67;;;2.40;;
8626;SDS011;4351;51.422;6.794;2022-09-23T05:08:57;6.00;;;2.40;;
8626;SDS011;4351;51.422;6.794;2022-09-23T05:11:26;3.97;;;2.20;;
8626;SDS011;4351;51.422;6.794;2022-09-23T05:13:56;4.60;;;2.20;;
8626;SDS011;4351;51.422;6.794;2022-09-23T05:16:26;4.43;;;2.40;;
8626;SDS011;4351;51.422;6.794;2022-09-23T05:18:54;5.93;;;3.27;;
8626;SDS011;4351;51.422;6.794;2022-09-23T05:21:23;3.53;;;2.47;;
8626;SDS011;4351;51.422;6.794;2022-09-23T05:23:54;5.77;;;2.83;;
8626;SDS011;4351;51.422;6.794;2022-09-23T05:26:26;4.40;;;2.50;;
8626;SDS011;4351;51.422;6.794;2022-09-23T05:28:56;4.60;;;2.60;;
8626;SDS011;4351;51.422;6.794;2022-09-23T05:31:27;4.23;;;2.63;;
8626;SDS011;4351;51.422;6.794;2022-09-23T05:33:56;6.63;;;2.90;;
8626;SDS011;4351;51.422;6.794;2022-09-23T05:36:26;3.70;;;2.57;;
8626;SDS011;4351;51.422;6.794;2022-09-23T05:39:01;5.10;;;3.10;;
8626;SDS011;4351;51.422;6.794;2022-09-23T05:41:30;7.07;;;3.20;;
8626;SDS011;4351;51.422;6.794;2022-09-23T05:43:58;5.23;;;2.90;;
8626;SDS011;4351;51.422;6.794;2022-09-23T05:46:30;6.87;;;2.73;;
8626;SDS011;4351;51.422;6.794;2022-09-23T05:49:01;8.90;;;2.80;;
8626;SDS011;4351;51.422;6.794;2022-09-23T05:51:31;4.97;;;2.80;;
8626;SDS011;4351;51.422;6.794;2022-09-23T05:54:00;6.83;;;3.00;;
8626;SDS011;4351;51.422;6.794;2022-09-23T05:56:30;5.47;;;2.60;;
8626;SDS011;4351;51.422;6.794;2022-09-23T05:58:59;4.83;;;2.80;;
8626;SDS011;4351;51.422;6.794;2022-09-23T06:01:30;4.43;;;3.10;;
8626;SDS011;4351;51.422;6.794;2022-09-23T06:04:01;8.27;;;3.23;;
8626;SDS011;4351;51.422;6.794;2022-09-23T06:06:35;5.50;;;2.90;;
8626;SDS011;4351;51.422;6.794;2022-09-23T06:09:21;6.70;;;3.20;;
8626;SDS011;4351;51.422;6.794;2022-09-23T06:11:52;5.00;;;2.80;;
8626;SDS011;4351;51.422;6.794;2022-09-23T06:14:20;4.33;;;2.90;;
8626;SDS011;4351;51.422;6.794;2022-09-23T06:16:50;5.17;;;3.17;;
8626;SDS011;4351;51.422;6.794;2022-09-23T06:19:18;4.03;;;2.90;;
8626;SDS011;4351;51.422;6.794;2022-09-23T06:21:55;6.33;;;3.03;;
8626;SDS011;4351;51.422;6.794;2022-09-23T06:24:24;5.97;;;3.03;;
8626;SDS011;4351;51.422;6.794;2022-09-23T06:26:57;5.73;;;2.90;;
8626;SDS011;4351;51.422;6.794;2022-09-23T06:29:26;4.00;;;2.63;;
8626;SDS011;4351;51.422;6.794;2022-09-23T06:32:01;7.57;;;3.40;;
8626;SDS011;4351;51.422;6.794;2022-09-23T06:37:27;13.57;;;3.47;;
8626;SDS011;4351;51.422;6.794;2022-09-23T06:39:57;10.37;;;3.40;;
8626;SDS011;4351;51.422;6.794;2022-09-23T06:42:26;5.17;;;2.83;;
8626;SDS011;4351;51.422;6.794;2022-09-23T06:45:00;5.47;;;2.80;;
8626;SDS011;4351;51.422;6.794;2022-09-23T06:47:33;5.73;;;2.43;;
8626;SDS011;4351;51.422;6.794;2022-09-23T06:50:03;5.23;;;2.60;;
8626;SDS011;4351;51.422;6.794;2022-09-23T06:52:32;7.93;;;2.87;;
8626;SDS011;4351;51.422;6.794;2022-09-23T06:55:05;5.67;;;2.37;;
8626;SDS011;4351;51.422;6.794;2022-09-23T06:57:42;6.13;;;2.90;;
8626;SDS011;4351;51.422;6.794;2022-09-23T07:00:11;3.40;;;2.60;;
8626;SDS011;4351;51.422;6.794;2022-09-23T07:02:41;5.53;;;2.77;;
8626;SDS011;4351;51.422;6.794;2022-09-23T07:05:10;4.10;;;2.77;;
8626;SDS011;4351;51.422;6.794;2022-09-23T07:10:50;5.03;;;2.73;;
8626;SDS011;4351;51.422;6.794;2022-09-23T07:13:20;7.03;;;2.50;;
8626;SDS011;4351;51.422;6.794;2022-09-23T07:15:52;4.33;;;2.60;;
8626;SDS011;4351;51.422;6.794;2022-09-23T07:18:26;2.90;;;2.30;;
8626;SDS011;4351;51.422;6.794;2022-09-23T07:21:08;7.07;;;2.70;;
8626;SDS011;4351;51.422;6.794;2022-09-23T07:23:44;4.83;;;2.27;;
8626;SDS011;4351;51.422;6.794;2022-09-23T07:26:25;9.23;;;2.80;;
8626;SDS011;4351;51.422;6.794;2022-09-23T07:29:02;3.97;;;2.57;;
8626;SDS011;4351;51.422;6.794;2022-09-23T07:31:38;4.57;;;2.63;;
8626;SDS011;4351;51.422;6.794;2022-09-23T07:34:08;4.97;;;2.50;;
8626;SDS011;4351;51.422;6.794;2022-09-23T07:36:38;5.57;;;1.90;;
8626;SDS011;4351;51.422;6.794;2022-09-23T07:39:07;4.80;;;2.33;;
8626;SDS011;4351;51.422;6.794;2022-09-23T07:41:37;4.43;;;2.20;;
8626;SDS011;4351;51.422;6.794;2022-09-23T07:44:08;3.37;;;2.10;;
8626;SDS011;4351;51.422;6.794;2022-09-23T07:46:37;3.07;;;2.20;;
8626;SDS011;4351;51.422;6.794;2022-09-23T07:49:05;5.27;;;2.50;;
8626;SDS011;4351;51.422;6.794;2022-09-23T07:51:41;4.47;;;2.13;;
8626;SDS011;4351;51.422;6.794;2022-09-23T07:54:12;4.17;;;2.60;;
8626;SDS011;4351;51.422;6.794;2022-09-23T07:56:42;5.70;;;2.10;;
8626;SDS011;4351;51.422;6.794;2022-09-23T07:59:16;3.03;;;1.93;;
8626;SDS011;4351;51.422;6.794;2022-09-23T08:01:45;8.40;;;3.40;;
8626;SDS011;4351;51.422;6.794;2022-09-23T08:04:17;4.83;;;2.13;;
8626;SDS011;4351;51.422;6.794;2022-09-23T08:06:49;3.70;;;2.00;;
8626;SDS011;4351;51.422;6.794;2022-09-23T08:09:25;4.03;;;2.40;;
8626;SDS011;4351;51.422;6.794;2022-09-23T08:12:04;7.97;;;2.70;;
8626;SDS011;4351;51.422;6.794;2022-09-23T08:17:46;5.13;;;2.30;;
8626;SDS011;4351;51.422;6.794;2022-09-23T08:20:16;4.43;;;2.60;;
8626;SDS011;4351;51.422;6.794;2022-09-23T08:23:32;3.23;;;1.90;;
8626;SDS011;4351;51.422;6.794;2022-09-23T08:26:01;3.57;;;2.30;;
8626;SDS011;4351;51.422;6.794;2022-09-23T08:28:31;4.37;;;2.20;;
8626;SDS011;4351;51.422;6.794;2022-09-23T08:31:55;6.57;;;2.43;;
8626;SDS011;4351;51.422;6.794;2022-09-23T08:34:29;4.47;;;2.50;;
8626;SDS011;4351;51.422;6.794;2022-09-23T08:36:57;4.60;;;2.33;;
8626;SDS011;4351;51.422;6.794;2022-09-23T08:39:26;4.90;;;2.30;;
8626;SDS011;4351;51.422;6.794;2022-09-23T08:42:01;4.10;;;2.43;;
8626;SDS011;4351;51.422;6.794;2022-09-23T08:44:39;3.13;;;2.17;;
8626;SDS011;4351;51.422;6.794;2022-09-23T08:47:15;3.70;;;2.13;;
8626;SDS011;4351;51.422;6.794;2022-09-23T08:49:49;2.90;;;1.80;;
8626;SDS011;4351;51.422;6.794;2022-09-23T08:52:28;3.47;;;2.00;;
8626;SDS011;4351;51.422;6.794;2022-09-23T08:55:02;6.33;;;2.50;;
8626;SDS011;4351;51.422;6.794;2022-09-23T08:57:34;8.53;;;2.50;;
8626;SDS011;4351;51.422;6.794;2022-09-23T09:00:12;4.80;;;2.27;;
8626;SDS011;4351;51.422;6.794;2022-09-23T09:02:42;3.77;;;2.20;;
8626;SDS011;4351;51.422;6.794;2022-09-23T09:05:11;3.93;;;2.10;;
8626;SDS011;4351;51.422;6.794;2022-09-23T09:07:43;3.80;;;2.50;;
8626;SDS011;4351;51.422;6.794;2022-09-23T09:10:15;5.27;;;2.63;;
8626;SDS011;4351;51.422;6.794;2022-09-23T09:12:48;4.07;;;2.17;;
8626;SDS011;4351;51.422;6.794;2022-09-23T09:15:19;5.03;;;2.40;;
8626;SDS011;4351;51.422;6.794;2022-09-23T09:17:53;4.53;;;2.40;;
8626;SDS011;4351;51.422;6.794;2022-09-23T09:20:30;6.63;;;2.33;;
8626;SDS011;4351;51.422;6.794;2022-09-23T09:23:05;5.97;;;2.30;;
8626;SDS011;4351;51.422;6.794;2022-09-23T09:26:35;7.27;;;2.47;;
8626;SDS011;4351;51.422;6.794;2022-09-23T09:30:37;5.87;;;2.50;;
8626;SDS011;4351;51.422;6.794;2022-09-23T09:38:21;5.70;;;2.53;;
8626;SDS011;4351;51.422;6.794;2022-09-23T09:40:49;4.87;;;2.07;;
8626;SDS011;4351;51.422;6.794;2022-09-23T09:43:19;5.23;;;3.03;;
8626;SDS011;4351;51.422;6.794;2022-09-23T09:45:54;6.67;;;2.83;;
8626;SDS011;4351;51.422;6.794;2022-09-23T09:48:33;3.50;;;2.40;;
8626;SDS011;4351;51.422;6.794;2022-09-23T09:51:15;3.37;;;2.50;;
8626;SDS011;4351;51.422;6.794;2022-09-23T09:53:46;5.07;;;2.80;;
8626;SDS011;4351;51.422;6.794;2022-09-23T09:56:18;4.37;;;2.23;;
8626;SDS011;4351;51.422;6.794;2022-09-23T09:58:54;4.43;;;2.27;;
8626;SDS011;4351;51.422;6.794;2022-09-23T10:01:26;4.13;;;2.50;;
8626;SDS011;4351;51.422;6.794;2022-09-23T10:03:56;5.27;;;2.97;;
8626;SDS011;4351;51.422;6.794;2022-09-23T10:06:26;5.87;;;3.40;;
8626;SDS011;4351;51.422;6.794;2022-09-23T10:09:03;7.23;;;3.30;;
8626;SDS011;4351;51.422;6.794;2022-09-23T10:11:36;5.80;;;3.43;;
8626;SDS011;4351;51.422;6.794;2022-09-23T10:14:09;4.77;;;3.67;;
8626;SDS011;4351;51.422;6.794;2022-09-23T10:16:39;5.57;;;3.00;;
8626;SDS011;4351;51.422;6.794;2022-09-23T10:19:12;8.30;;;3.20;;
8626;SDS011;4351;51.422;6.794;2022-09-23T10:21:50;7.27;;;3.53;;
8626;SDS011;4351;51.422;6.794;2022-09-23T10:24:23;9.33;;;3.53;;
8626;SDS011;4351;51.422;6.794;2022-09-23T10:26:56;6.83;;;3.30;;
8626;SDS011;4351;51.422;6.794;2022-09-23T10:29:30;5.90;;;3.50;;
8626;SDS011;4351;51.422;6.794;2022-09-23T10:32:12;5.83;;;3.73;;
8626;SDS011;4351;51.422;6.794;2022-09-23T10:34:46;7.17;;;4.30;;
8626;SDS011;4351;51.422;6.794;2022-09-23T10:37:20;8.57;;;4.27;;
8626;SDS011;4351;51.422;6.794;2022-09-23T10:39:57;10.03;;;4.30;;
8626;SDS011;4351;51.422;6.794;2022-09-23T10:42:50;6.67;;;3.77;;
8626;SDS011;4351;51.422;6.794;2022-09-23T10:45:46;6.90;;;3.37;;
8626;SDS011;4351;51.422;6.794;2022-09-23T10:48:36;5.37;;;3.00;;
8626;SDS011;4351;51.422;6.794;2022-09-23T10:51:14;4.40;;;2.93;;
8626;SDS011;4351;51.422;6.794;2022-09-23T10:53:52;5.77;;;3.13;;
8626;SDS011;4351;51.422;6.794;2022-09-23T10:56:30;5.77;;;3.50;;
8626;SDS011;4351;51.422;6.794;2022-09-23T10:59:09;7.87;;;3.43;;
8626;SDS011;4351;51.422;6.794;2022-09-23T11:01:48;8.70;;;3.50;;
8626;SDS011;4351;51.422;6.794;2022-09-23T11:04:31;6.87;;;3.00;;
8626;SDS011;4351;51.422;6.794;2022-09-23T11:07:20;5.60;;;2.50;;
8626;SDS011;4351;51.422;6.794;2022-09-23T11:10:04;5.10;;;2.87;;
8626;SDS011;4351;51.422;6.794;2022-09-23T11:13:06;5.33;;;2.70;;
8626;SDS011;4351;51.422;6.794;2022-09-23T11:15:43;6.00;;;2.73;;
8626;SDS011;4351;51.422;6.794;2022-09-23T11:18:26;4.63;;;2.70;;
8626;SDS011;4351;51.422;6.794;2022-09-23T11:21:25;7.27;;;2.93;;
8626;SDS011;4351;51.422;6.794;2022-09-23T11:27:21;5.60;;;3.20;;
8626;SDS011;4351;51.422;6.794;2022-09-23T11:30:00;4.47;;;2.57;;
8626;SDS011;4351;51.422;6.794;2022-09-23T11:32:42;9.47;;;2.93;;
8626;SDS011;4351;51.422;6.794;2022-09-23T11:35:23;6.57;;;3.30;;
8626;SDS011;4351;51.422;6.794;2022-09-23T11:37:54;10.37;;;4.10;;
8626;SDS011;4351;51.422;6.794;2022-09-23T11:40:29;9.97;;;3.90;;
8626;SDS011;4351;51.422;6.794;2022-09-23T11:42:58;6.70;;;3.80;;
8626;SDS011;4351;51.422;6.794;2022-09-23T11:45:32;9.33;;;3.97;;
8626;SDS011;4351;51.422;6.794;2022-09-23T11:48:08;6.83;;;3.53;;
8626;SDS011;4351;51.422;6.794;2022-09-23T11:50:43;8.50;;;3.23;;
8626;SDS011;4351;51.422;6.794;2022-09-23T11:53:17;11.17;;;3.90;;
8626;SDS011;4351;51.422;6.794;2022-09-23T11:55:52;6.83;;;3.63;;
8626;SDS011;4351;51.422;6.794;2022-09-23T11:58:27;8.37;;;3.57;;
8626;SDS011;4351;51.422;6.794;2022-09-23T12:00:58;8.53;;;3.13;;
8626;SDS011;4351;51.422;6.794;2022-09-23T12:03:32;9.40;;;3.47;;
8626;SDS011;4351;51.422;6.794;2022-09-23T12:06:14;6.63;;;3.17;;
8626;SDS011;4351;51.422;6.794;2022-09-23T12:08:46;5.53;;;3.03;;
8626;SDS011;4351;51.422;6.794;2022-09-23T12:11:22;6.03;;;2.77;;
8626;SDS011;4351;51.422;6.794;2022-09-23T12:13:56;4.87;;;2.50;;
8626;SDS011;4351;51.422;6.794;2022-09-23T12:16:43;10.20;;;4.53;;
8626;SDS011;4351;51.422;6.794;2022-09-23T12:19:32;9.40;;;4.10;;
8626;SDS011;4351;51.422;6.794;2022-09-23T12:22:26;7.63;;;3.70;;
8626;SDS011;4351;51.422;6.794;2022-09-23T12:25:11;6.23;;;3.57;;
8626;SDS011;4351;51.422;6.794;2022-09-23T12:27:54;5.63;;;3.40;;
8626;SDS011;4351;51.422;6.794;2022-09-23T12:30:29;4.83;;;3.00;;
8626;SDS011;4351;51.422;6.794;2022-09-23T12:33:05;7.60;;;3.37;;
8626;SDS011;4351;51.422;6.794;2022-09-23T12:35:39;7.73;;;3.20;;
8626;SDS011;4351;51.422;6.794;2022-09-23T12:38:12;6.80;;;3.40;;
8626;SDS011;4351;51.422;6.794;2022-09-23T12:40:45;5.63;;;3.00;;
8626;SDS011;4351;51.422;6.794;2022-09-23T12:43:15;7.33;;;3.10;;
8626;SDS011;4351;51.422;6.794;2022-09-23T12:45:44;4.73;;;2.70;;
8626;SDS011;4351;51.422;6.794;2022-09-23T12:51:13;7.47;;;2.87;;
8626;SDS011;4351;51.422;6.794;2022-09-23T12:56:59;4.77;;;2.13;;
8626;SDS011;4351;51.422;6.794;2022-09-23T12:59:29;4.60;;;2.17;;
8626;SDS011;4351;51.422;6.794;2022-09-23T13:02:12;4.67;;;2.10;;
8626;SDS011;4351;51.422;6.794;2022-09-23T13:04:54;6.03;;;2.43;;
8626;SDS011;4351;51.422;6.794;2022-09-23T13:07:44;7.57;;;2.10;;
8626;SDS011;4351;51.422;6.794;2022-09-23T13:10:15;3.17;;;2.00;;
8626;SDS011;4351;51.422;6.794;2022-09-23T13:12:50;8.40;;;2.43;;
8626;SDS011;4351;51.422;6.794;2022-09-23T13:15:23;3.60;;;2.07;;
8626;SDS011;4351;51.422;6.794;2022-09-23T13:21:15;6.13;;;2.93;;
8626;SDS011;4351;51.422;6.794;2022-09-23T13:26:44;6.40;;;2.67;;
8626;SDS011;4351;51.422;6.794;2022-09-23T13:29:15;5.67;;;2.20;;
8626;SDS011;4351;51.422;6.794;2022-09-23T13:31:46;5.00;;;2.47;;
8626;SDS011;4351;51.422;6.794;2022-09-23T13:34:15;4.37;;;2.37;;
8626;SDS011;4351;51.422;6.794;2022-09-23T13:36:47;5.97;;;2.30;;
8626;SDS011;4351;51.422;6.794;2022-09-23T13:39:18;7.73;;;2.87;;
8626;SDS011;4351;51.422;6.794;2022-09-23T13:41:50;5.40;;;2.50;;
8626;SDS011;4351;51.422;6.794;2022-09-23T13:44:21;4.57;;;2.20;;
8626;SDS011;4351;51.422;6.794;2022-09-23T13:46:50;6.53;;;2.67;;
8626;SDS011;4351;51.422;6.794;2022-09-23T13:49:21;5.63;;;2.80;;
8626;SDS011;4351;51.422;6.794;2022-09-23T13:51:51;5.43;;;2.40;;
8626;SDS011;4351;51.422;6.794;2022-09-23T13:54:25;4.73;;;2.33;;
8626;SDS011;4351;51.422;6.794;2022-09-23T13:56:54;6.23;;;2.77;;
8626;SDS011;4351;51.422;6.794;2022-09-23T13:59:25;7.20;;;2.73;;
8626;SDS011;4351;51.422;6.794;2022-09-23T14:02:04;6.37;;;2.30;;
8626;SDS011;4351;51.422;6.794;2022-09-23T14:04:37;3.97;;;2.57;;
8626;SDS011;4351;51.422;6.794;2022-09-23T14:07:05;4.10;;;2.57;;
8626;SDS011;4351;51.422;6.794;2022-09-23T14:09:39;3.83;;;2.77;;
8626;SDS011;4351;51.422;6.794;2022-09-23T14:12:09;4.97;;;2.20;;
8626;SDS011;4351;51.422;6.794;2022-09-23T14:14:40;4.73;;;2.20;;
8626;SDS011;4351;51.422;6.794;2022-09-23T14:17:21;6.57;;;2.53;;
8626;SDS011;4351;51.422;6.794;2022-09-23T14:19:49;4.67;;;2.37;;
8626;SDS011;4351;51.422;6.794;2022-09-23T14:22:21;6.40;;;2.57;;
8626;SDS011;4351;51.422;6.794;2022-09-23T14:24:51;3.83;;;2.47;;
8626;SDS011;4351;51.422;6.794;2022-09-23T14:27:24;9.53;;;3.00;;
8626;SDS011;4351;51.422;6.794;2022-09-23T14:29:55;5.57;;;2.47;;
8626;SDS011;4351;51.422;6.794;2022-09-23T14:32:26;3.40;;;2.30;;
8626;SDS011;4351;51.422;6.794;2022-09-23T14:35:15;5.13;;;2.47;;
8626;SDS011;4351;51.422;6.794;2022-09-23T14:37:50;5.63;;;2.83;;
8626;SDS011;4351;51.422;6.794;2022-09-23T14:40:48;5.60;;;2.83;;
8626;SDS011;4351;51.422;6.794;2022-09-23T14:43:19;10.27;;;3.03;;
8626;SDS011;4351;51.422;6.794;2022-09-23T14:45:52;4.47;;;2.57;;
8626;SDS011;4351;51.422;6.794;2022-09-23T14:48:23;4.13;;;2.03;;
8626;SDS011;4351;51.422;6.794;2022-09-23T14:50:54;3.67;;;2.10;;
8626;SDS011;4351;51.422;6.794;2022-09-23T14:53:34;5.43;;;2.17;;
8626;SDS011;4351;51.422;6.794;2022-09-23T14:56:09;3.57;;;2.07;;
8626;SDS011;4351;51.422;6.794;2022-09-23T14:58:41;5.57;;;2.23;;
8626;SDS011;4351;51.422;6.794;2022-09-23T15:01:34;4.40;;;2.00;;
8626;SDS011;4351;51.422;6.794;2022-09-23T15:04:17;3.10;;;1.60;;
8626;SDS011;4351;51.422;6.794;2022-09-23T15:06:59;4.43;;;2.10;;
8626;SDS011;4351;51.422;6.794;2022-09-23T15:09:34;3.93;;;1.97;;
8626;SDS011;4351;51.422;6.794;2022-09-23T15:12:06;5.53;;;2.10;;
8626;SDS011;4351;51.422;6.794;2022-09-23T15:14:39;4.07;;;2.13;;
8626;SDS011;4351;51.422;6.794;2022-09-23T15:17:19;4.37;;;2.00;;
8626;SDS011;4351;51.422;6.794;2022-09-23T15:19:58;3.13;;;1.83;;
8626;SDS011;4351;51.422;6.794;2022-09-23T15:22:29;5.00;;;2.00;;
8626;SDS011;4351;51.422;6.794;2022-09-23T15:25:07;4.93;;;1.93;;
8626;SDS011;4351;51.422;6.794;2022-09-23T15:27:43;3.93;;;2.00;;
8626;SDS011;4351;51.422;6.794;2022-09-23T15:30:22;5.13;;;1.97;;
8626;SDS011;4351;51.422;6.794;2022-09-23T15:32:52;5.37;;;2.00;;
8626;SDS011;4351;51.422;6.794;2022-09-23T15:35:20;4.70;;;1.77;;
8626;SDS011;4351;51.422;6.794;2022-09-23T15:37:54;3.53;;;1.80;;
8626;SDS011;4351;51.422;6.794;2022-09-23T15:40:26;3.03;;;1.77;;
8626;SDS011;4351;51.422;6.794;2022-09-23T15:42:56;5.23;;;2.10;;
8626;SDS011;4351;51.422;6.794;2022-09-23T15:45:27;6.00;;;1.90;;
8626;SDS011;4351;51.422;6.794;2022-09-23T15:48:02;4.50;;;2.27;;
8626;SDS011;4351;51.422;6.794;2022-09-23T15:50:34;5.60;;;2.30;;
8626;SDS011;4351;51.422;6.794;2022-09-23T15:53:03;3.10;;;1.97;;
8626;SDS011;4351;51.422;6.794;2022-09-23T15:55:33;5.40;;;2.70;;
8626;SDS011;4351;51.422;6.794;2022-09-23T15:58:03;4.83;;;2.23;;
8626;SDS011;4351;51.422;6.794;2022-09-23T16:00:31;4.30;;;1.90;;
8626;SDS011;4351;51.422;6.794;2022-09-23T16:03:02;4.70;;;2.00;;
8626;SDS011;4351;51.422;6.794;2022-09-23T16:05:33;8.47;;;2.10;;
8626;SDS011;4351;51.422;6.794;2022-09-23T16:08:03;2.63;;;1.70;;
8626;SDS011;4351;51.422;6.794;2022-09-23T16:10:35;6.50;;;1.97;;
8626;SDS011;4351;51.422;6.794;2022-09-23T16:13:04;8.57;;;2.00;;
8626;SDS011;4351;51.422;6.794;2022-09-23T16:15:34;2.87;;;1.73;;
8626;SDS011;4351;51.422;6.794;2022-09-23T16:18:05;3.87;;;1.80;;
8626;SDS011;4351;51.422;6.794;2022-09-23T16:20:35;3.03;;;1.53;;
8626;SDS011;4351;51.422;6.794;2022-09-23T16:23:05;5.33;;;1.80;;
8626;SDS011;4351;51.422;6.794;2022-09-23T16:25:37;3.70;;;1.53;;
8626;SDS011;4351;51.422;6.794;2022-09-23T16:28:05;2.93;;;1.73;;